sensor_id;sensor_type;location;lat;lon;timestamp;P1;durP1;ratioP1;P2;durP2;ratioP2
75016;SDS011;63577;39.766;2.720;2023-09-19T00:01:40;9.10;;;3.50;;
75016;SDS011;63577;39.766;2.720;2023-09-19T00:04:07;6.70;;;3.50;;
75016;SDS011;63577;39.766;2.720;2023-09-19T00:06:38;8.70;;;3.80;;
75016;SDS011;63577;39.766;2.720;2023-09-19T00:09:03;8.60;;;4.00;;
75016;SDS011;63577;39.766;2.720;2023-09-19T00:11:29;7.30;;;3.90;;
75016;SDS011;63577;39.766;2.720;2023-09-19T00:13:54;10.70;;;4.20;;
75016;SDS011;63577;39.766;2.720;2023-09-19T00:16:20;8.30;;;3.80;;
75016;SDS011;63577;39.766;2.720;2023-09-19T00:18:45;7.10;;;3.60;;
75016;SDS011;63577;39.766;2.720;2023-09-19T00:21:11;6.80;;;3.40;;
75016;SDS011;63577;39.766;2.720;2023-09-19T00:23:36;6.90;;;3.40;;
75016;SDS011;63577;39.766;2.720;2023-09-19T00:26:02;7.10;;;3.40;;
75016;SDS011;63577;39.766;2.720;2023-09-19T00:28:28;8.70;;;3.90;;
75016;SDS011;63577;39.766;2.720;2023-09-19T00:30:56;8.80;;;3.70;;
75016;SDS011;63577;39.766;2.720;2023-09-19T00:33:22;6.10;;;3.50;;
75016;SDS011;63577;39.766;2.720;2023-09-19T00:35:53;7.30;;;3.30;;
75016;SDS011;63577;39.766;2.720;2023-09-19T00:38:19;6.90;;;3.40;;
75016;SDS011;63577;39.766;2.720;2023-09-19T00:40:47;7.40;;;3.20;;
75016;SDS011;63577;39.766;2.720;2023-09-19T00:43:13;7.30;;;3.10;;
75016;SDS011;63577;39.766;2.720;2023-09-19T00:45:39;7.80;;;3.10;;
75016;SDS011;63577;39.766;2.720;2023-09-19T00:48:08;7.40;;;4.10;;
75016;SDS011;63577;39.766;2.720;2023-09-19T00:50:34;7.00;;;3.20;;
75016;SDS011;63577;39.766;2.720;2023-09-19T00:53:00;6.40;;;3.70;;
75016;SDS011;63577;39.766;2.720;2023-09-19T00:55:26;8.90;;;3.80;;
75016;SDS011;63577;39.766;2.720;2023-09-19T00:57:55;7.50;;;3.90;;
75016;SDS011;63577;39.766;2.720;2023-09-19T01:00:21;7.30;;;3.60;;
75016;SDS011;63577;39.766;2.720;2023-09-19T01:02:46;6.60;;;3.60;;
75016;SDS011;63577;39.766;2.720;2023-09-19T01:05:12;7.80;;;4.00;;
75016;SDS011;63577;39.766;2.720;2023-09-19T01:07:38;7.50;;;3.50;;
75016;SDS011;63577;39.766;2.720;2023-09-19T01:10:06;7.00;;;3.40;;
75016;SDS011;63577;39.766;2.720;2023-09-19T01:15:06;7.80;;;3.90;;
75016;SDS011;63577;39.766;2.720;2023-09-19T01:17:58;6.80;;;3.50;;
75016;SDS011;63577;39.766;2.720;2023-09-19T01:20:24;7.90;;;3.70;;
75016;SDS011;63577;39.766;2.720;2023-09-19T01:22:56;7.50;;;3.70;;
75016;SDS011;63577;39.766;2.720;2023-09-19T01:30:14;10.40;;;3.80;;
75016;SDS011;63577;39.766;2.720;2023-09-19T01:32:42;6.40;;;3.60;;
75016;SDS011;63577;39.766;2.720;2023-09-19T01:35:08;5.90;;;3.70;;
75016;SDS011;63577;39.766;2.720;2023-09-19T01:37:37;6.50;;;3.60;;
75016;SDS011;63577;39.766;2.720;2023-09-19T01:40:10;8.60;;;3.30;;
75016;SDS011;63577;39.766;2.720;2023-09-19T01:45:28;7.50;;;3.60;;
75016;SDS011;63577;39.766;2.720;2023-09-19T01:47:59;6.60;;;2.90;;
75016;SDS011;63577;39.766;2.720;2023-09-19T01:50:34;6.20;;;3.20;;
75016;SDS011;63577;39.766;2.720;2023-09-19T01:55:50;7.50;;;3.60;;
75016;SDS011;63577;39.766;2.720;2023-09-19T02:00:54;7.30;;;3.70;;
75016;SDS011;63577;39.766;2.720;2023-09-19T02:03:20;5.70;;;3.60;;
75016;SDS011;63577;39.766;2.720;2023-09-19T02:05:50;7.20;;;4.00;;
75016;SDS011;63577;39.766;2.720;2023-09-19T02:08:19;6.10;;;3.30;;
75016;SDS011;63577;39.766;2.720;2023-09-19T02:10:45;7.50;;;3.60;;
75016;SDS011;63577;39.766;2.720;2023-09-19T02:13:17;5.90;;;3.40;;
75016;SDS011;63577;39.766;2.720;2023-09-19T02:15:44;6.50;;;3.40;;
75016;SDS011;63577;39.766;2.720;2023-09-19T02:18:10;7.80;;;3.30;;
75016;SDS011;63577;39.766;2.720;2023-09-19T02:20:36;7.10;;;3.60;;
75016;SDS011;63577;39.766;2.720;2023-09-19T02:23:02;7.40;;;3.60;;
75016;SDS011;63577;39.766;2.720;2023-09-19T02:25:28;7.10;;;4.10;;
75016;SDS011;63577;39.766;2.720;2023-09-19T02:27:53;5.40;;;3.10;;
75016;SDS011;63577;39.766;2.720;2023-09-19T02:30:19;5.40;;;3.30;;
75016;SDS011;63577;39.766;2.720;2023-09-19T02:32:48;6.40;;;3.10;;
75016;SDS011;63577;39.766;2.720;2023-09-19T02:35:14;6.10;;;3.20;;
75016;SDS011;63577;39.766;2.720;2023-09-19T02:37:40;7.70;;;3.20;;
75016;SDS011;63577;39.766;2.720;2023-09-19T02:40:05;5.80;;;3.00;;
75016;SDS011;63577;39.766;2.720;2023-09-19T02:42:47;6.90;;;3.30;;
75016;SDS011;63577;39.766;2.720;2023-09-19T02:45:17;6.60;;;2.70;;
75016;SDS011;63577;39.766;2.720;2023-09-19T02:47:48;5.40;;;2.70;;
75016;SDS011;63577;39.766;2.720;2023-09-19T02:50:14;5.20;;;2.80;;
75016;SDS011;63577;39.766;2.720;2023-09-19T02:52:43;5.70;;;2.70;;
75016;SDS011;63577;39.766;2.720;2023-09-19T02:55:09;6.70;;;3.10;;
75016;SDS011;63577;39.766;2.720;2023-09-19T02:57:35;6.20;;;2.50;;
75016;SDS011;63577;39.766;2.720;2023-09-19T03:00:00;4.20;;;2.30;;
75016;SDS011;63577;39.766;2.720;2023-09-19T03:02:26;5.90;;;2.80;;
75016;SDS011;63577;39.766;2.720;2023-09-19T03:04:53;5.30;;;2.30;;
75016;SDS011;63577;39.766;2.720;2023-09-19T03:07:18;4.30;;;2.30;;
75016;SDS011;63577;39.766;2.720;2023-09-19T03:09:44;4.90;;;2.60;;
75016;SDS011;63577;39.766;2.720;2023-09-19T03:12:10;8.50;;;2.80;;
75016;SDS011;63577;39.766;2.720;2023-09-19T03:14:35;5.90;;;2.60;;
75016;SDS011;63577;39.766;2.720;2023-09-19T03:17:01;4.70;;;2.30;;
75016;SDS011;63577;39.766;2.720;2023-09-19T03:19:30;5.30;;;2.70;;
75016;SDS011;63577;39.766;2.720;2023-09-19T03:21:55;5.40;;;2.40;;
75016;SDS011;63577;39.766;2.720;2023-09-19T03:24:22;5.30;;;2.70;;
75016;SDS011;63577;39.766;2.720;2023-09-19T03:26:48;6.10;;;2.90;;
75016;SDS011;63577;39.766;2.720;2023-09-19T03:29:14;6.00;;;3.10;;
75016;SDS011;63577;39.766;2.720;2023-09-19T03:31:39;7.20;;;2.90;;
75016;SDS011;63577;39.766;2.720;2023-09-19T03:34:05;6.10;;;2.60;;
75016;SDS011;63577;39.766;2.720;2023-09-19T03:36:30;5.70;;;2.80;;
75016;SDS011;63577;39.766;2.720;2023-09-19T03:38:55;5.50;;;3.10;;
75016;SDS011;63577;39.766;2.720;2023-09-19T03:41:21;5.20;;;3.10;;
75016;SDS011;63577;39.766;2.720;2023-09-19T03:43:46;6.60;;;2.70;;
75016;SDS011;63577;39.766;2.720;2023-09-19T03:46:12;8.10;;;3.20;;
75016;SDS011;63577;39.766;2.720;2023-09-19T03:48:40;6.10;;;3.00;;
75016;SDS011;63577;39.766;2.720;2023-09-19T03:51:05;5.30;;;2.80;;
75016;SDS011;63577;39.766;2.720;2023-09-19T03:53:30;5.90;;;3.00;;
75016;SDS011;63577;39.766;2.720;2023-09-19T03:55:56;5.20;;;2.90;;
75016;SDS011;63577;39.766;2.720;2023-09-19T03:58:22;6.00;;;2.70;;
75016;SDS011;63577;39.766;2.720;2023-09-19T04:00:47;7.20;;;2.70;;
75016;SDS011;63577;39.766;2.720;2023-09-19T04:03:15;5.30;;;2.40;;
75016;SDS011;63577;39.766;2.720;2023-09-19T04:05:45;5.10;;;2.50;;
75016;SDS011;63577;39.766;2.720;2023-09-19T04:08:11;5.70;;;2.80;;
75016;SDS011;63577;39.766;2.720;2023-09-19T04:10:37;6.90;;;2.70;;
75016;SDS011;63577;39.766;2.720;2023-09-19T04:13:02;6.00;;;3.10;;
75016;SDS011;63577;39.766;2.720;2023-09-19T04:15:29;8.50;;;3.10;;
75016;SDS011;63577;39.766;2.720;2023-09-19T04:17:54;6.80;;;2.80;;
75016;SDS011;63577;39.766;2.720;2023-09-19T04:20:19;7.10;;;2.90;;
75016;SDS011;63577;39.766;2.720;2023-09-19T04:22:45;7.30;;;2.90;;
75016;SDS011;63577;39.766;2.720;2023-09-19T04:25:11;6.10;;;3.20;;
75016;SDS011;63577;39.766;2.720;2023-09-19T04:27:37;6.70;;;3.10;;
75016;SDS011;63577;39.766;2.720;2023-09-19T04:30:03;7.40;;;2.90;;
75016;SDS011;63577;39.766;2.720;2023-09-19T04:32:30;7.60;;;3.50;;
75016;SDS011;63577;39.766;2.720;2023-09-19T04:34:57;6.00;;;3.20;;
75016;SDS011;63577;39.766;2.720;2023-09-19T04:37:25;5.50;;;3.10;;
75016;SDS011;63577;39.766;2.720;2023-09-19T04:39:50;6.60;;;3.40;;
75016;SDS011;63577;39.766;2.720;2023-09-19T04:42:16;6.90;;;3.40;;
75016;SDS011;63577;39.766;2.720;2023-09-19T04:44:42;7.60;;;3.00;;
75016;SDS011;63577;39.766;2.720;2023-09-19T04:47:08;6.60;;;3.10;;
75016;SDS011;63577;39.766;2.720;2023-09-19T04:49:33;5.70;;;3.50;;
75016;SDS011;63577;39.766;2.720;2023-09-19T04:52:00;6.80;;;3.40;;
75016;SDS011;63577;39.766;2.720;2023-09-19T04:54:25;6.40;;;3.40;;
75016;SDS011;63577;39.766;2.720;2023-09-19T04:56:52;7.90;;;3.40;;
75016;SDS011;63577;39.766;2.720;2023-09-19T04:59:17;6.60;;;3.20;;
75016;SDS011;63577;39.766;2.720;2023-09-19T05:01:42;5.50;;;2.90;;
75016;SDS011;63577;39.766;2.720;2023-09-19T05:04:08;6.30;;;2.70;;
75016;SDS011;63577;39.766;2.720;2023-09-19T05:06:33;6.00;;;3.30;;
75016;SDS011;63577;39.766;2.720;2023-09-19T05:08:58;8.50;;;3.20;;
75016;SDS011;63577;39.766;2.720;2023-09-19T05:11:25;7.60;;;2.60;;
75016;SDS011;63577;39.766;2.720;2023-09-19T05:13:51;6.90;;;3.20;;
75016;SDS011;63577;39.766;2.720;2023-09-19T05:16:18;6.80;;;3.20;;
75016;SDS011;63577;39.766;2.720;2023-09-19T05:18:43;6.40;;;3.20;;
75016;SDS011;63577;39.766;2.720;2023-09-19T05:21:09;6.00;;;3.10;;
75016;SDS011;63577;39.766;2.720;2023-09-19T05:23:34;7.00;;;3.10;;
75016;SDS011;63577;39.766;2.720;2023-09-19T05:25:59;7.80;;;3.10;;
75016;SDS011;63577;39.766;2.720;2023-09-19T05:28:25;8.20;;;3.40;;
75016;SDS011;63577;39.766;2.720;2023-09-19T05:30:52;6.60;;;2.80;;
75016;SDS011;63577;39.766;2.720;2023-09-19T05:33:18;5.30;;;3.60;;
75016;SDS011;63577;39.766;2.720;2023-09-19T05:35:44;6.60;;;3.00;;
75016;SDS011;63577;39.766;2.720;2023-09-19T05:38:12;9.90;;;3.70;;
75016;SDS011;63577;39.766;2.720;2023-09-19T05:40:39;7.30;;;3.30;;
75016;SDS011;63577;39.766;2.720;2023-09-19T05:43:07;10.60;;;3.40;;
75016;SDS011;63577;39.766;2.720;2023-09-19T05:45:33;8.70;;;3.80;;
75016;SDS011;63577;39.766;2.720;2023-09-19T05:48:07;7.90;;;3.60;;
75016;SDS011;63577;39.766;2.720;2023-09-19T05:50:33;8.20;;;3.40;;
75016;SDS011;63577;39.766;2.720;2023-09-19T05:52:59;7.20;;;3.10;;
75016;SDS011;63577;39.766;2.720;2023-09-19T05:55:24;6.00;;;3.10;;
75016;SDS011;63577;39.766;2.720;2023-09-19T05:57:50;6.50;;;2.90;;
75016;SDS011;63577;39.766;2.720;2023-09-19T06:00:17;6.90;;;3.20;;
75016;SDS011;63577;39.766;2.720;2023-09-19T06:02:43;6.00;;;3.10;;
75016;SDS011;63577;39.766;2.720;2023-09-19T06:05:10;8.10;;;3.80;;
75016;SDS011;63577;39.766;2.720;2023-09-19T06:07:36;8.90;;;2.90;;
75016;SDS011;63577;39.766;2.720;2023-09-19T06:10:05;8.60;;;3.20;;
75016;SDS011;63577;39.766;2.720;2023-09-19T06:12:31;6.50;;;3.00;;
75016;SDS011;63577;39.766;2.720;2023-09-19T06:15:00;9.10;;;2.90;;
75016;SDS011;63577;39.766;2.720;2023-09-19T06:17:25;5.40;;;2.80;;
75016;SDS011;63577;39.766;2.720;2023-09-19T06:19:52;7.40;;;2.60;;
75016;SDS011;63577;39.766;2.720;2023-09-19T06:22:18;5.80;;;2.80;;
75016;SDS011;63577;39.766;2.720;2023-09-19T06:24:44;5.20;;;3.00;;
75016;SDS011;63577;39.766;2.720;2023-09-19T06:27:10;6.10;;;3.10;;
75016;SDS011;63577;39.766;2.720;2023-09-19T06:29:35;7.10;;;2.90;;
75016;SDS011;63577;39.766;2.720;2023-09-19T06:32:06;12.20;;;4.30;;
75016;SDS011;63577;39.766;2.720;2023-09-19T06:34:32;16.30;;;7.00;;
75016;SDS011;63577;39.766;2.720;2023-09-19T06:36:58;22.10;;;11.40;;
75016;SDS011;63577;39.766;2.720;2023-09-19T06:39:23;27.90;;;13.10;;
75016;SDS011;63577;39.766;2.720;2023-09-19T06:41:51;40.90;;;19.70;;
75016;SDS011;63577;39.766;2.720;2023-09-19T06:44:18;45.20;;;24.10;;
75016;SDS011;63577;39.766;2.720;2023-09-19T06:46:45;33.70;;;18.90;;
75016;SDS011;63577;39.766;2.720;2023-09-19T06:49:16;31.20;;;15.60;;
75016;SDS011;63577;39.766;2.720;2023-09-19T06:51:42;26.50;;;12.00;;
75016;SDS011;63577;39.766;2.720;2023-09-19T06:54:08;21.30;;;10.90;;
75016;SDS011;63577;39.766;2.720;2023-09-19T06:56:33;17.90;;;9.60;;
75016;SDS011;63577;39.766;2.720;2023-09-19T06:58:59;15.00;;;7.20;;
75016;SDS011;63577;39.766;2.720;2023-09-19T07:01:24;13.10;;;7.10;;
75016;SDS011;63577;39.766;2.720;2023-09-19T07:03:50;13.10;;;6.40;;
75016;SDS011;63577;39.766;2.720;2023-09-19T07:06:16;14.10;;;7.20;;
75016;SDS011;63577;39.766;2.720;2023-09-19T07:08:41;15.80;;;9.80;;
75016;SDS011;63577;39.766;2.720;2023-09-19T07:11:07;28.70;;;15.50;;
75016;SDS011;63577;39.766;2.720;2023-09-19T07:13:32;44.70;;;24.80;;
75016;SDS011;63577;39.766;2.720;2023-09-19T07:16:00;55.30;;;32.40;;
75016;SDS011;63577;39.766;2.720;2023-09-19T07:18:26;81.50;;;50.60;;
75016;SDS011;63577;39.766;2.720;2023-09-19T07:20:56;103.90;;;63.50;;
75016;SDS011;63577;39.766;2.720;2023-09-19T07:23:26;98.40;;;58.00;;
75016;SDS011;63577;39.766;2.720;2023-09-19T07:25:51;71.10;;;39.90;;
75016;SDS011;63577;39.766;2.720;2023-09-19T07:28:17;67.90;;;38.00;;
75016;SDS011;63577;39.766;2.720;2023-09-19T07:30:43;55.00;;;30.70;;
75016;SDS011;63577;39.766;2.720;2023-09-19T07:33:09;47.50;;;28.90;;
75016;SDS011;63577;39.766;2.720;2023-09-19T07:35:36;42.90;;;24.90;;
75016;SDS011;63577;39.766;2.720;2023-09-19T07:38:05;48.20;;;27.00;;
75016;SDS011;63577;39.766;2.720;2023-09-19T07:40:30;42.40;;;25.00;;
75016;SDS011;63577;39.766;2.720;2023-09-19T07:42:55;30.20;;;16.30;;
75016;SDS011;63577;39.766;2.720;2023-09-19T07:45:21;18.40;;;9.10;;
75016;SDS011;63577;39.766;2.720;2023-09-19T07:47:46;17.50;;;9.80;;
75016;SDS011;63577;39.766;2.720;2023-09-19T07:50:12;21.60;;;9.90;;
75016;SDS011;63577;39.766;2.720;2023-09-19T07:52:38;30.00;;;15.40;;
75016;SDS011;63577;39.766;2.720;2023-09-19T07:55:05;63.80;;;31.30;;
75016;SDS011;63577;39.766;2.720;2023-09-19T07:57:33;50.20;;;26.00;;
75016;SDS011;63577;39.766;2.720;2023-09-19T07:59:59;37.40;;;21.40;;
75016;SDS011;63577;39.766;2.720;2023-09-19T08:02:25;36.80;;;21.10;;
75016;SDS011;63577;39.766;2.720;2023-09-19T08:04:50;35.00;;;19.40;;
75016;SDS011;63577;39.766;2.720;2023-09-19T08:07:17;35.70;;;21.40;;
75016;SDS011;63577;39.766;2.720;2023-09-19T08:09:43;39.60;;;19.90;;
75016;SDS011;63577;39.766;2.720;2023-09-19T08:12:13;36.40;;;20.70;;
75016;SDS011;63577;39.766;2.720;2023-09-19T08:14:40;36.90;;;22.20;;
75016;SDS011;63577;39.766;2.720;2023-09-19T08:17:06;39.30;;;22.70;;
75016;SDS011;63577;39.766;2.720;2023-09-19T08:19:33;36.00;;;22.10;;
75016;SDS011;63577;39.766;2.720;2023-09-19T08:21:59;32.60;;;18.40;;
75016;SDS011;63577;39.766;2.720;2023-09-19T08:24:27;28.00;;;16.10;;
75016;SDS011;63577;39.766;2.720;2023-09-19T08:26:57;23.80;;;15.10;;
75016;SDS011;63577;39.766;2.720;2023-09-19T08:29:25;24.10;;;12.90;;
75016;SDS011;63577;39.766;2.720;2023-09-19T08:31:55;25.30;;;14.70;;
75016;SDS011;63577;39.766;2.720;2023-09-19T08:34:22;28.40;;;18.40;;
75016;SDS011;63577;39.766;2.720;2023-09-19T08:36:49;29.00;;;15.20;;
75016;SDS011;63577;39.766;2.720;2023-09-19T08:39:15;17.20;;;9.60;;
75016;SDS011;63577;39.766;2.720;2023-09-19T08:41:42;13.00;;;7.20;;
75016;SDS011;63577;39.766;2.720;2023-09-19T08:44:07;15.90;;;8.80;;
75016;SDS011;63577;39.766;2.720;2023-09-19T08:46:34;16.50;;;10.20;;
75016;SDS011;63577;39.766;2.720;2023-09-19T08:49:04;12.50;;;7.00;;
75016;SDS011;63577;39.766;2.720;2023-09-19T08:51:41;10.10;;;5.10;;
75016;SDS011;63577;39.766;2.720;2023-09-19T08:54:32;10.40;;;5.80;;
75016;SDS011;63577;39.766;2.720;2023-09-19T08:56:56;8.00;;;3.50;;
75016;SDS011;63577;39.766;2.720;2023-09-19T08:59:23;5.60;;;2.20;;
75016;SDS011;63577;39.766;2.720;2023-09-19T09:01:50;5.10;;;2.40;;
75016;SDS011;63577;39.766;2.720;2023-09-19T09:04:19;6.00;;;2.40;;
75016;SDS011;63577;39.766;2.720;2023-09-19T09:06:45;4.70;;;2.10;;
75016;SDS011;63577;39.766;2.720;2023-09-19T09:09:13;5.40;;;2.30;;
75016;SDS011;63577;39.766;2.720;2023-09-19T09:11:40;6.10;;;2.20;;
75016;SDS011;63577;39.766;2.720;2023-09-19T09:14:05;10.70;;;7.60;;
75016;SDS011;63577;39.766;2.720;2023-09-19T09:16:32;10.00;;;6.80;;
75016;SDS011;63577;39.766;2.720;2023-09-19T09:18:57;9.10;;;5.60;;
75016;SDS011;63577;39.766;2.720;2023-09-19T09:21:26;14.20;;;7.20;;
75016;SDS011;63577;39.766;2.720;2023-09-19T09:23:52;16.40;;;8.30;;
75016;SDS011;63577;39.766;2.720;2023-09-19T09:29:02;23.60;;;13.20;;
75016;SDS011;63577;39.766;2.720;2023-09-19T09:31:27;24.30;;;13.80;;
75016;SDS011;63577;39.766;2.720;2023-09-19T09:33:53;24.20;;;14.90;;
75016;SDS011;63577;39.766;2.720;2023-09-19T09:36:31;16.60;;;9.10;;
75016;SDS011;63577;39.766;2.720;2023-09-19T09:38:59;13.00;;;6.20;;
75016;SDS011;63577;39.766;2.720;2023-09-19T09:41:35;10.20;;;4.90;;
75016;SDS011;63577;39.766;2.720;2023-09-19T09:44:23;9.20;;;4.10;;
75016;SDS011;63577;39.766;2.720;2023-09-19T09:46:48;9.60;;;5.10;;
75016;SDS011;63577;39.766;2.720;2023-09-19T09:49:26;8.40;;;4.40;;
75016;SDS011;63577;39.766;2.720;2023-09-19T09:54:26;8.20;;;3.40;;
75016;SDS011;63577;39.766;2.720;2023-09-19T09:57:05;8.10;;;3.60;;
75016;SDS011;63577;39.766;2.720;2023-09-19T09:59:49;8.60;;;3.60;;
75016;SDS011;63577;39.766;2.720;2023-09-19T10:02:27;7.20;;;3.20;;
75016;SDS011;63577;39.766;2.720;2023-09-19T10:05:14;7.70;;;3.40;;
75016;SDS011;63577;39.766;2.720;2023-09-19T10:07:52;7.40;;;3.30;;
75016;SDS011;63577;39.766;2.720;2023-09-19T10:10:35;6.70;;;3.00;;
75016;SDS011;63577;39.766;2.720;2023-09-19T10:13:13;7.90;;;2.80;;
75016;SDS011;63577;39.766;2.720;2023-09-19T10:15:43;10.60;;;4.20;;
75016;SDS011;63577;39.766;2.720;2023-09-19T10:18:16;6.60;;;3.20;;
75016;SDS011;63577;39.766;2.720;2023-09-19T10:20:45;6.40;;;2.60;;
75016;SDS011;63577;39.766;2.720;2023-09-19T10:23:11;7.20;;;2.40;;
75016;SDS011;63577;39.766;2.720;2023-09-19T10:25:40;9.50;;;2.70;;
75016;SDS011;63577;39.766;2.720;2023-09-19T10:28:07;6.50;;;2.40;;
75016;SDS011;63577;39.766;2.720;2023-09-19T10:30:45;6.00;;;2.40;;
75016;SDS011;63577;39.766;2.720;2023-09-19T10:33:16;6.40;;;2.50;;
75016;SDS011;63577;39.766;2.720;2023-09-19T10:35:42;10.10;;;2.40;;
75016;SDS011;63577;39.766;2.720;2023-09-19T10:38:09;8.80;;;2.70;;
75016;SDS011;63577;39.766;2.720;2023-09-19T10:40:35;5.70;;;2.30;;
75016;SDS011;63577;39.766;2.720;2023-09-19T10:43:03;6.00;;;2.00;;
75016;SDS011;63577;39.766;2.720;2023-09-19T10:47:57;7.20;;;2.90;;
75016;SDS011;63577;39.766;2.720;2023-09-19T10:50:22;7.70;;;3.00;;
75016;SDS011;63577;39.766;2.720;2023-09-19T10:52:49;5.90;;;2.50;;
75016;SDS011;63577;39.766;2.720;2023-09-19T10:55:24;6.30;;;2.30;;
75016;SDS011;63577;39.766;2.720;2023-09-19T10:57:49;6.90;;;2.60;;
75016;SDS011;63577;39.766;2.720;2023-09-19T11:00:15;8.30;;;2.20;;
75016;SDS011;63577;39.766;2.720;2023-09-19T11:05:32;9.20;;;2.20;;
75016;SDS011;63577;39.766;2.720;2023-09-19T11:07:58;6.20;;;1.90;;
75016;SDS011;63577;39.766;2.720;2023-09-19T11:10:47;8.60;;;2.10;;
75016;SDS011;63577;39.766;2.720;2023-09-19T11:13:27;6.60;;;1.70;;
75016;SDS011;63577;39.766;2.720;2023-09-19T11:27:11;7.90;;;1.90;;
75016;SDS011;63577;39.766;2.720;2023-09-19T11:29:40;6.60;;;1.90;;
75016;SDS011;63577;39.766;2.720;2023-09-19T11:32:05;8.00;;;2.50;;
75016;SDS011;63577;39.766;2.720;2023-09-19T11:37:59;7.50;;;1.90;;
75016;SDS011;63577;39.766;2.720;2023-09-19T11:40:10;12.10;;;1.80;;
75016;SDS011;63577;39.766;2.720;2023-09-19T11:42:47;9.70;;;2.00;;
75016;SDS011;63577;39.766;2.720;2023-09-19T11:48:14;7.30;;;2.20;;
75016;SDS011;63577;39.766;2.720;2023-09-19T11:50:43;8.40;;;1.90;;
75016;SDS011;63577;39.766;2.720;2023-09-19T11:53:10;8.40;;;2.00;;
75016;SDS011;63577;39.766;2.720;2023-09-19T11:55:40;5.70;;;1.60;;
75016;SDS011;63577;39.766;2.720;2023-09-19T11:58:08;9.80;;;2.00;;
75016;SDS011;63577;39.766;2.720;2023-09-19T12:00:34;7.30;;;1.70;;
75016;SDS011;63577;39.766;2.720;2023-09-19T12:03:01;6.40;;;2.00;;
75016;SDS011;63577;39.766;2.720;2023-09-19T12:05:31;10.60;;;2.00;;
75016;SDS011;63577;39.766;2.720;2023-09-19T12:07:58;8.70;;;2.00;;
75016;SDS011;63577;39.766;2.720;2023-09-19T12:10:24;6.50;;;1.90;;
75016;SDS011;63577;39.766;2.720;2023-09-19T12:12:49;7.40;;;1.90;;
75016;SDS011;63577;39.766;2.720;2023-09-19T12:15:22;8.80;;;2.10;;
75016;SDS011;63577;39.766;2.720;2023-09-19T12:17:47;9.60;;;2.20;;
75016;SDS011;63577;39.766;2.720;2023-09-19T12:20:14;8.80;;;2.60;;
75016;SDS011;63577;39.766;2.720;2023-09-19T12:22:40;9.50;;;2.50;;
75016;SDS011;63577;39.766;2.720;2023-09-19T12:25:06;7.40;;;2.30;;
75016;SDS011;63577;39.766;2.720;2023-09-19T12:27:43;8.80;;;2.50;;
75016;SDS011;63577;39.766;2.720;2023-09-19T12:30:09;8.90;;;2.20;;
75016;SDS011;63577;39.766;2.720;2023-09-19T12:32:35;9.80;;;2.30;;
75016;SDS011;63577;39.766;2.720;2023-09-19T12:35:01;8.10;;;2.30;;
75016;SDS011;63577;39.766;2.720;2023-09-19T12:37:32;7.50;;;2.20;;
75016;SDS011;63577;39.766;2.720;2023-09-19T12:40:07;5.60;;;2.10;;
75016;SDS011;63577;39.766;2.720;2023-09-19T12:42:45;6.70;;;2.10;;
75016;SDS011;63577;39.766;2.720;2023-09-19T12:45:11;8.30;;;2.10;;
75016;SDS011;63577;39.766;2.720;2023-09-19T12:47:39;5.90;;;2.00;;
75016;SDS011;63577;39.766;2.720;2023-09-19T12:50:06;7.40;;;2.20;;
75016;SDS011;63577;39.766;2.720;2023-09-19T12:52:37;8.40;;;2.20;;
75016;SDS011;63577;39.766;2.720;2023-09-19T12:55:03;5.90;;;2.30;;
75016;SDS011;63577;39.766;2.720;2023-09-19T12:57:32;8.20;;;2.80;;
75016;SDS011;63577;39.766;2.720;2023-09-19T13:00:00;10.90;;;3.50;;
75016;SDS011;63577;39.766;2.720;2023-09-19T13:02:25;18.20;;;4.00;;
75016;SDS011;63577;39.766;2.720;2023-09-19T13:04:53;14.50;;;4.30;;
75016;SDS011;63577;39.766;2.720;2023-09-19T13:10:04;12.10;;;2.50;;
75016;SDS011;63577;39.766;2.720;2023-09-19T13:12:36;6.20;;;2.30;;
75016;SDS011;63577;39.766;2.720;2023-09-19T13:15:09;5.70;;;2.60;;
75016;SDS011;63577;39.766;2.720;2023-09-19T13:18:01;8.90;;;2.70;;
75016;SDS011;63577;39.766;2.720;2023-09-19T13:20:38;6.80;;;2.20;;
75016;SDS011;63577;39.766;2.720;2023-09-19T13:23:25;7.10;;;2.10;;
75016;SDS011;63577;39.766;2.720;2023-09-19T13:25:52;8.20;;;2.30;;
75016;SDS011;63577;39.766;2.720;2023-09-19T13:28:17;6.60;;;2.20;;
75016;SDS011;63577;39.766;2.720;2023-09-19T13:30:43;7.80;;;2.20;;
75016;SDS011;63577;39.766;2.720;2023-09-19T13:33:10;7.80;;;2.00;;
75016;SDS011;63577;39.766;2.720;2023-09-19T13:35:38;6.00;;;1.90;;
75016;SDS011;63577;39.766;2.720;2023-09-19T13:38:05;6.80;;;2.00;;
75016;SDS011;63577;39.766;2.720;2023-09-19T13:40:31;7.60;;;2.10;;
75016;SDS011;63577;39.766;2.720;2023-09-19T13:43:00;8.00;;;2.20;;
75016;SDS011;63577;39.766;2.720;2023-09-19T13:45:26;7.90;;;2.30;;
75016;SDS011;63577;39.766;2.720;2023-09-19T13:47:52;8.20;;;2.10;;
75016;SDS011;63577;39.766;2.720;2023-09-19T13:50:17;6.70;;;2.30;;
75016;SDS011;63577;39.766;2.720;2023-09-19T13:52:48;6.60;;;2.50;;
75016;SDS011;63577;39.766;2.720;2023-09-19T13:55:16;8.50;;;2.60;;
75016;SDS011;63577;39.766;2.720;2023-09-19T13:57:45;7.10;;;2.40;;
75016;SDS011;63577;39.766;2.720;2023-09-19T14:00:11;8.70;;;2.10;;
75016;SDS011;63577;39.766;2.720;2023-09-19T14:02:39;6.50;;;1.50;;
75016;SDS011;63577;39.766;2.720;2023-09-19T14:05:05;5.40;;;1.60;;
75016;SDS011;63577;39.766;2.720;2023-09-19T14:07:32;6.50;;;1.80;;
75016;SDS011;63577;39.766;2.720;2023-09-19T14:09:57;8.60;;;1.80;;
75016;SDS011;63577;39.766;2.720;2023-09-19T14:12:22;7.10;;;1.70;;
75016;SDS011;63577;39.766;2.720;2023-09-19T14:14:48;6.70;;;1.60;;
75016;SDS011;63577;39.766;2.720;2023-09-19T14:17:16;6.80;;;1.90;;
75016;SDS011;63577;39.766;2.720;2023-09-19T14:19:41;7.80;;;1.50;;
75016;SDS011;63577;39.766;2.720;2023-09-19T14:22:09;9.90;;;1.80;;
75016;SDS011;63577;39.766;2.720;2023-09-19T14:24:35;7.90;;;1.80;;
75016;SDS011;63577;39.766;2.720;2023-09-19T14:27:01;6.60;;;1.90;;
75016;SDS011;63577;39.766;2.720;2023-09-19T14:29:29;8.60;;;1.80;;
75016;SDS011;63577;39.766;2.720;2023-09-19T14:31:54;7.50;;;2.10;;
75016;SDS011;63577;39.766;2.720;2023-09-19T14:34:22;9.20;;;2.10;;
75016;SDS011;63577;39.766;2.720;2023-09-19T14:36:47;9.40;;;1.70;;
75016;SDS011;63577;39.766;2.720;2023-09-19T14:39:14;10.00;;;1.70;;
75016;SDS011;63577;39.766;2.720;2023-09-19T14:41:39;6.10;;;1.10;;
75016;SDS011;63577;39.766;2.720;2023-09-19T14:44:04;6.30;;;1.40;;
75016;SDS011;63577;39.766;2.720;2023-09-19T14:46:30;5.10;;;1.00;;
75016;SDS011;63577;39.766;2.720;2023-09-19T14:48:56;6.20;;;1.20;;
75016;SDS011;63577;39.766;2.720;2023-09-19T14:51:24;5.50;;;0.90;;
75016;SDS011;63577;39.766;2.720;2023-09-19T14:53:50;4.00;;;0.80;;
75016;SDS011;63577;39.766;2.720;2023-09-19T14:56:16;5.30;;;0.80;;
75016;SDS011;63577;39.766;2.720;2023-09-19T14:58:43;5.10;;;1.30;;
75016;SDS011;63577;39.766;2.720;2023-09-19T15:01:09;5.60;;;1.00;;
75016;SDS011;63577;39.766;2.720;2023-09-19T15:03:35;4.60;;;0.80;;
75016;SDS011;63577;39.766;2.720;2023-09-19T15:06:04;3.50;;;0.90;;
75016;SDS011;63577;39.766;2.720;2023-09-19T15:08:30;3.90;;;1.20;;
75016;SDS011;63577;39.766;2.720;2023-09-19T15:10:56;4.30;;;0.90;;
75016;SDS011;63577;39.766;2.720;2023-09-19T15:13:23;2.90;;;0.70;;
75016;SDS011;63577;39.766;2.720;2023-09-19T15:15:57;3.50;;;0.70;;
75016;SDS011;63577;39.766;2.720;2023-09-19T15:18:23;3.40;;;0.70;;
75016;SDS011;63577;39.766;2.720;2023-09-19T15:20:48;3.80;;;0.80;;
75016;SDS011;63577;39.766;2.720;2023-09-19T15:23:13;3.00;;;0.80;;
75016;SDS011;63577;39.766;2.720;2023-09-19T15:25:39;2.40;;;0.70;;
75016;SDS011;63577;39.766;2.720;2023-09-19T15:28:06;3.40;;;0.60;;
75016;SDS011;63577;39.766;2.720;2023-09-19T15:30:37;3.00;;;0.80;;
75016;SDS011;63577;39.766;2.720;2023-09-19T15:33:02;3.90;;;0.80;;